Time,TemperatureF,DewpointF,PressureIn,WindDirection,WindDirectionDegrees,WindSpeedMPH,WindSpeedGustMPH,Humidity,HourlyPrecipIn,Conditions,Clouds,dailyrainin,SoftwareType,DateUTC
2013-01-09 00:01:00,68.0,66.0,29.99,NNE,20,14.0,22.0,93,-99.99,,,-99.99,,2013-01-09 10:01:00,
2013-01-09 00:11:00,68.0,64.0,29.99,NNE,30,14.0,-999.0,88,-99.99,,,-99.99,,2013-01-09 10:11:00,
2013-01-09 00:22:00,68.0,66.0,29.99,NNE,20,8.0,-999.0,93,-99.99,,,-99.99,,2013-01-09 10:22:00,
2013-01-09 00:32:00,68.0,66.0,29.99,NE,40,7.0,20.0,93,-99.99,,,-99.99,,2013-01-09 10:32:00,
2013-01-09 00:42:00,68.0,66.0,29.99,NE,50,8.0,20.0,93,-99.99,,,-99.99,,2013-01-09 10:42:00,
2013-01-09 00:52:00,68.0,64.0,29.99,NNE,20,9.0,-999.0,88,-99.99,,,-99.99,,2013-01-09 10:52:00,
2013-01-09 01:02:00,68.0,64.0,29.99,NNE,20,9.0,-999.0,88,-99.99,,,-99.99,,2013-01-09 11:02:00,
2013-01-09 01:11:00,70.0,66.0,29.99,ENE,70,7.0,23.0,88,-99.99,,,-99.99,,2013-01-09 11:11:00,
2013-01-09 01:22:00,70.0,66.0,29.98,ENE,70,15.0,18.0,88,-99.99,,,-99.99,,2013-01-09 11:22:00,
2013-01-09 01:32:00,70.0,64.0,29.98,ENE,60,7.0,16.0,82,-99.99,,,-99.99,,2013-01-09 11:32:00,
2013-01-09 01:42:00,70.0,64.0,29.97,ENE,70,13.0,16.0,82,-99.99,,,-99.99,,2013-01-09 11:42:00,
2013-01-09 01:52:00,68.0,64.0,29.97,ENE,60,6.0,-999.0,88,-99.99,,,-99.99,,2013-01-09 11:52:00,
2013-01-09 02:02:00,68.0,64.0,29.97,ENE,60,6.0,-999.0,88,-99.99,,,-99.99,,2013-01-09 12:02:00,
2013-01-09 02:12:00,70.0,64.0,29.96,East,90,9.0,23.0,82,-99.99,,,-99.99,,2013-01-09 12:12:00,
2013-01-09 02:22:00,70.0,64.0,29.96,East,80,7.0,17.0,82,-99.99,,,-99.99,,2013-01-09 12:22:00,
2013-01-09 02:32:00,70.0,64.0,29.96,East,90,7.0,-999.0,82,-99.99,,,-99.99,,2013-01-09 12:32:00,
2013-01-09 02:42:00,70.0,64.0,29.96,NE,40,8.0,-999.0,82,-99.99,,,-99.99,,2013-01-09 12:42:00,
2013-01-09 02:52:00,70.0,64.0,29.95,East,90,8.0,17.0,82,-99.99,,,-99.99,,2013-01-09 12:52:00,
2013-01-09 03:02:00,70.0,64.0,29.95,East,90,8.0,17.0,82,-99.99,,,-99.99,,2013-01-09 13:02:00,
2013-01-09 03:11:00,70.0,64.0,29.94,East,90,13.0,21.0,82,-99.99,,,-99.99,,2013-01-09 13:11:00,
2013-01-09 03:22:00,70.0,64.0,29.94,East,90,12.0,20.0,82,-99.99,,,-99.99,,2013-01-09 13:22:00,
2013-01-09 03:32:00,70.0,64.0,29.94,NE,40,6.0,18.0,82,-99.99,,,-99.99,,2013-01-09 13:32:00,
2013-01-09 03:42:00,70.0,64.0,29.94,East,80,7.0,22.0,82,-99.99,,,-99.99,,2013-01-09 13:42:00,
2013-01-09 03:52:00,72.0,64.0,29.94,East,90,9.0,16.0,78,-99.99,,,-99.99,,2013-01-09 13:52:00,
2013-01-09 04:02:00,72.0,64.0,29.94,East,90,9.0,16.0,78,-99.99,,,-99.99,,2013-01-09 14:02:00,
2013-01-09 04:12:00,72.0,64.0,29.95,ENE,60,7.0,-999.0,78,-99.99,,,-99.99,,2013-01-09 14:12:00,
2013-01-09 04:22:00,72.0,64.0,29.95,NE,40,9.0,-999.0,78,-99.99,,,-99.99,,2013-01-09 14:22:00,
2013-01-09 04:32:00,72.0,64.0,29.94,NE,40,7.0,20.0,78,-99.99,,,-99.99,,2013-01-09 14:32:00,
2013-01-09 04:42:00,72.0,64.0,29.94,ENE,60,8.0,-999.0,78,-99.99,,,-99.99,,2013-01-09 14:42:00,
2013-01-09 04:52:00,70.0,64.0,29.94,East,100,10.0,-999.0,82,-99.99,,,-99.99,,2013-01-09 14:52:00,
2013-01-09 05:02:00,70.0,64.0,29.94,East,100,10.0,-999.0,82,-99.99,,,-99.99,,2013-01-09 15:02:00,
2013-01-09 05:12:00,70.0,64.0,29.94,NE,40,15.0,17.0,82,-99.99,,,-99.99,,2013-01-09 15:12:00,
2013-01-09 05:22:00,70.0,64.0,29.94,NNE,30,7.0,-999.0,82,-99.99,,,-99.99,,2013-01-09 15:22:00,
2013-01-09 05:32:00,70.0,64.0,29.95,NE,40,9.0,-999.0,82,-99.99,,,-99.99,,2013-01-09 15:32:00,
2013-01-09 05:42:00,70.0,64.0,29.95,NE,40,13.0,-999.0,82,-99.99,,,-99.99,,2013-01-09 15:42:00,
2013-01-09 05:52:00,72.0,64.0,29.95,ENE,70,14.0,-999.0,78,-99.99,,,-99.99,,2013-01-09 15:52:00,
2013-01-09 06:02:00,72.0,64.0,29.95,ENE,70,14.0,-999.0,78,-99.99,,,-99.99,,2013-01-09 16:02:00,
2013-01-09 06:11:00,72.0,64.0,29.95,NNE,30,9.0,-999.0,78,-99.99,,,-99.99,,2013-01-09 16:11:00,
2013-01-09 06:22:00,70.0,64.0,29.96,ENE,60,10.0,-999.0,82,-99.99,,,-99.99,,2013-01-09 16:22:00,
2013-01-09 06:32:00,70.0,64.0,29.96,ENE,60,10.0,-999.0,82,-99.99,,,-99.99,,2013-01-09 16:32:00,
2013-01-09 06:42:00,70.0,64.0,29.97,ENE,70,7.0,-999.0,82,-99.99,,,-99.99,,2013-01-09 16:42:00,
2013-01-09 06:52:00,72.0,64.0,29.97,NE,40,10.0,-999.0,78,-99.99,,,-99.99,,2013-01-09 16:52:00,
2013-01-09 07:01:00,72.0,64.0,29.97,NE,40,10.0,-999.0,78,-99.99,,,-99.99,,2013-01-09 17:01:00,
2013-01-09 07:11:00,70.0,64.0,29.98,NE,50,9.0,21.0,82,0.00,,,-99.99,,2013-01-09 17:11:00,
2013-01-09 07:22:00,70.0,64.0,29.98,NNE,30,12.0,-999.0,82,0.00,,,-99.99,,2013-01-09 17:22:00,
2013-01-09 07:32:00,68.0,64.0,29.98,NE,50,10.0,-999.0,88,0.00,,,-99.99,,2013-01-09 17:32:00,
2013-01-09 07:42:00,68.0,64.0,29.98,ENE,60,7.0,18.0,88,0.00,,,-99.99,,2013-01-09 17:42:00,
2013-01-09 07:52:00,70.0,64.0,29.99,NE,40,9.0,22.0,82,0.00,,,-99.99,,2013-01-09 17:52:00,
2013-01-09 08:02:00,70.0,64.0,29.99,NE,40,9.0,22.0,82,-99.99,,,-99.99,,2013-01-09 18:02:00,
2013-01-09 08:11:00,70.0,66.0,29.99,ENE,60,14.0,18.0,88,-99.99,,,-99.99,,2013-01-09 18:11:00,
2013-01-09 08:22:00,70.0,66.0,29.99,NE,40,16.0,21.0,88,-99.99,,,-99.99,,2013-01-09 18:22:00,
2013-01-09 08:32:00,70.0,66.0,30.00,ENE,70,13.0,18.0,88,-99.99,,,-99.99,,2013-01-09 18:32:00,
2013-01-09 08:42:00,70.0,66.0,30.00,NE,50,14.0,18.0,88,-99.99,,,-99.99,,2013-01-09 18:42:00,
2013-01-09 08:52:00,70.0,66.0,30.00,ENE,60,12.0,17.0,88,-99.99,,,-99.99,,2013-01-09 18:52:00,
2013-01-09 09:02:00,70.0,66.0,30.00,ENE,60,12.0,17.0,88,-99.99,,,-99.99,,2013-01-09 19:02:00,
2013-01-09 09:12:00,70.0,66.0,30.01,ENE,60,6.0,-999.0,88,-99.99,,,-99.99,,2013-01-09 19:12:00,
2013-01-09 09:22:00,72.0,66.0,30.01,ENE,70,12.0,-999.0,83,-99.99,,,-99.99,,2013-01-09 19:22:00,
2013-01-09 09:32:00,72.0,66.0,30.01,ENE,60,10.0,-999.0,83,-99.99,,,-99.99,,2013-01-09 19:32:00,
2013-01-09 09:42:00,72.0,66.0,30.01,NNE,30,9.0,-999.0,83,-99.99,,,-99.99,,2013-01-09 19:42:00,
2013-01-09 09:52:00,72.0,66.0,30.01,NE,40,13.0,-999.0,83,-99.99,,,-99.99,,2013-01-09 19:52:00,
2013-01-09 10:02:00,72.0,66.0,30.01,NE,40,13.0,-999.0,83,-99.99,,,-99.99,,2013-01-09 20:02:00,
2013-01-09 10:11:00,72.0,66.0,30.01,NE,40,13.0,20.0,83,-99.99,,,-99.99,,2013-01-09 20:11:00,
2013-01-09 10:22:00,72.0,66.0,30.01,East,80,16.0,-999.0,83,-99.99,,,-99.99,,2013-01-09 20:22:00,
2013-01-09 10:32:00,72.0,66.0,30.00,ENE,60,16.0,23.0,83,-99.99,,,-99.99,,2013-01-09 20:32:00,
2013-01-09 10:42:00,72.0,66.0,30.00,ENE,60,20.0,23.0,83,-99.99,,,-99.99,,2013-01-09 20:42:00,
2013-01-09 10:52:00,72.0,66.0,30.00,ENE,60,14.0,-999.0,83,-99.99,,,-99.99,,2013-01-09 20:52:00,
2013-01-09 11:02:00,72.0,66.0,30.00,ENE,60,14.0,-999.0,83,-99.99,,,-99.99,,2013-01-09 21:02:00,
2013-01-09 11:12:00,72.0,66.0,29.99,NE,50,12.0,21.0,83,-99.99,,,-99.99,,2013-01-09 21:12:00,
2013-01-09 11:22:00,73.0,66.0,29.98,ENE,70,14.0,25.0,78,-99.99,,,-99.99,,2013-01-09 21:22:00,
2013-01-09 11:32:00,73.0,66.0,29.98,ENE,60,13.0,21.0,78,-99.99,,,-99.99,,2013-01-09 21:32:00,
2013-01-09 11:42:00,73.0,66.0,29.97,East,80,13.0,20.0,78,-99.99,,,-99.99,,2013-01-09 21:42:00,
2013-01-09 12:03:00,-999.0,-99.9,29.96,NE,50,12.0,-999.0,-999,-99.99,,,-99.99,,2013-01-09 22:03:00,
2013-01-09 12:11:00,73.0,66.0,29.96,NNE,30,16.0,21.0,78,0.00,,,-99.99,,2013-01-09 22:11:00,
2013-01-09 12:22:00,75.0,66.0,29.95,ENE,60,15.0,23.0,73,0.00,,,-99.99,,2013-01-09 22:22:00,
2013-01-09 12:32:00,75.0,66.0,29.95,East,80,18.0,27.0,73,0.00,,,-99.99,,2013-01-09 22:32:00,
2013-01-09 12:42:00,75.0,66.0,29.95,East,80,12.0,27.0,73,0.00,,,-99.99,,2013-01-09 22:42:00,
2013-01-09 12:52:00,75.0,66.0,29.94,NNE,30,13.0,23.0,73,0.00,,,-99.99,,2013-01-09 22:52:00,
2013-01-09 13:02:00,75.0,66.0,29.94,NNE,30,13.0,23.0,73,-99.99,,,-99.99,,2013-01-09 23:02:00,
2013-01-09 13:12:00,75.0,66.0,29.93,NNE,30,13.0,21.0,73,0.00,,,-99.99,,2013-01-09 23:12:00,
2013-01-09 13:22:00,75.0,66.0,29.93,NNE,30,16.0,20.0,73,0.00,,,-99.99,,2013-01-09 23:22:00,
2013-01-09 13:32:00,75.0,66.0,29.92,NE,50,16.0,21.0,73,0.00,,,-99.99,,2013-01-09 23:32:00,
2013-01-09 13:42:00,75.0,66.0,29.92,NE,40,17.0,23.0,73,0.00,,,-99.99,,2013-01-09 23:42:00,
2013-01-09 13:52:00,75.0,66.0,29.92,ENE,60,18.0,-999.0,73,0.00,,,-99.99,,2013-01-09 23:52:00,
2013-01-09 14:02:00,75.0,66.0,29.92,ENE,60,18.0,-999.0,73,-99.99,,,-99.99,,2013-01-10 00:02:00,
2013-01-09 14:11:00,73.0,66.0,29.91,NE,40,16.0,22.0,78,-99.99,,,-99.99,,2013-01-10 00:11:00,
2013-01-09 14:22:00,75.0,66.0,29.92,NE,50,13.0,28.0,73,-99.99,,,-99.99,,2013-01-10 00:22:00,
2013-01-09 14:32:00,73.0,64.0,29.92,ENE,60,18.0,24.0,73,-99.99,,,-99.99,,2013-01-10 00:32:00,
2013-01-09 14:42:00,73.0,66.0,29.91,NE,50,15.0,20.0,78,-99.99,,,-99.99,,2013-01-10 00:42:00,
2013-01-09 14:52:00,75.0,66.0,29.91,East,80,6.0,17.0,73,-99.99,,,-99.99,,2013-01-10 00:52:00,
2013-01-09 15:02:00,75.0,66.0,29.91,East,80,6.0,17.0,73,-99.99,,,-99.99,,2013-01-10 01:02:00,
2013-01-09 15:11:00,73.0,66.0,29.92,ENE,60,9.0,18.0,78,-99.99,,,-99.99,,2013-01-10 01:11:00,
2013-01-09 15:21:00,75.0,66.0,29.92,NE,50,14.0,21.0,73,-99.99,,,-99.99,,2013-01-10 01:21:00,
2013-01-09 15:32:00,75.0,66.0,29.93,ENE,60,12.0,17.0,73,-99.99,,,-99.99,,2013-01-10 01:32:00,
2013-01-09 15:42:00,75.0,66.0,29.93,NNE,30,9.0,17.0,73,-99.99,,,-99.99,,2013-01-10 01:42:00,
2013-01-09 15:52:00,75.0,66.0,29.93,NE,50,7.0,22.0,73,-99.99,,,-99.99,,2013-01-10 01:52:00,
2013-01-09 16:02:00,75.0,66.0,29.93,NE,50,7.0,22.0,73,-99.99,,,-99.99,,2013-01-10 02:02:00,
2013-01-09 16:12:00,75.0,64.0,29.93,ENE,70,13.0,-999.0,69,-99.99,,,-99.99,,2013-01-10 02:12:00,
2013-01-09 16:22:00,75.0,64.0,29.93,ENE,60,7.0,20.0,69,-99.99,,,-99.99,,2013-01-10 02:22:00,
2013-01-09 16:32:00,75.0,64.0,29.93,NNE,30,2.0,-999.0,69,-99.99,,,-99.99,,2013-01-10 02:32:00,
2013-01-09 16:42:00,75.0,64.0,29.93,NNE,30,2.0,-999.0,69,-99.99,,,-99.99,,2013-01-10 02:42:00,
2013-01-09 16:52:00,75.0,64.0,29.93,NNE,30,2.0,-999.0,69,-99.99,,,-99.99,,2013-01-10 02:52:00,
2013-01-09 17:02:00,75.0,64.0,29.94,East,80,14.0,20.0,69,-99.99,,,-99.99,,2013-01-10 03:02:00,
2013-01-09 17:11:00,73.0,64.0,29.94,NE,50,12.0,17.0,73,-99.99,,,-99.99,,2013-01-10 03:11:00,
2013-01-09 17:22:00,73.0,64.0,29.94,NE,50,10.0,-999.0,73,-99.99,,,-99.99,,2013-01-10 03:22:00,
2013-01-09 17:32:00,73.0,64.0,29.94,East,90,14.0,18.0,73,-99.99,,,-99.99,,2013-01-10 03:32:00,
2013-01-09 17:42:00,73.0,64.0,29.94,NE,50,12.0,18.0,73,-99.99,,,-99.99,,2013-01-10 03:42:00,
2013-01-09 17:52:00,72.0,64.0,29.95,East,100,6.0,21.0,78,-99.99,,,-99.99,,2013-01-10 03:52:00,
2013-01-09 18:02:00,72.0,64.0,29.95,East,100,6.0,21.0,78,-99.99,,,-99.99,,2013-01-10 04:02:00,
2013-01-09 18:11:00,72.0,64.0,29.95,East,80,7.0,17.0,78,0.00,,,-99.99,,2013-01-10 04:11:00,
2013-01-09 18:21:00,72.0,64.0,29.95,ENE,60,9.0,-999.0,78,0.00,,,-99.99,,2013-01-10 04:21:00,
2013-01-09 18:32:00,72.0,63.0,29.95,ENE,60,7.0,20.0,73,0.00,,,-99.99,,2013-01-10 04:32:00,
2013-01-09 18:42:00,72.0,63.0,29.96,East,100,7.0,-999.0,73,0.00,,,-99.99,,2013-01-10 04:42:00,
2013-01-09 18:52:00,72.0,63.0,29.96,East,80,16.0,20.0,73,0.00,,,-99.99,,2013-01-10 04:52:00,
2013-01-09 19:03:00,72.0,63.0,29.96,East,80,16.0,20.0,73,-99.99,,,-99.99,,2013-01-10 05:03:00,
2013-01-09 19:12:00,72.0,63.0,29.97,ENE,60,8.0,18.0,73,-99.99,,,-99.99,,2013-01-10 05:12:00,
2013-01-09 19:22:00,72.0,63.0,29.98,ENE,70,2.0,-999.0,73,-99.99,,,-99.99,,2013-01-10 05:22:00,
2013-01-09 19:32:00,72.0,63.0,29.98,East,100,9.0,-999.0,73,-99.99,,,-99.99,,2013-01-10 05:32:00,
2013-01-09 19:42:00,72.0,63.0,29.98,ENE,60,9.0,-999.0,73,-99.99,,,-99.99,,2013-01-10 05:42:00,
2013-01-09 19:52:00,72.0,63.0,29.98,East,80,12.0,21.0,73,-99.99,,,-99.99,,2013-01-10 05:52:00,
2013-01-09 20:02:00,72.0,63.0,29.98,East,80,12.0,21.0,73,-99.99,,,-99.99,,2013-01-10 06:02:00,
2013-01-09 20:11:00,72.0,63.0,29.98,NE,50,7.0,-999.0,73,-99.99,,,-99.99,,2013-01-10 06:11:00,
2013-01-09 20:22:00,72.0,63.0,29.98,ENE,60,7.0,20.0,73,-99.99,,,-99.99,,2013-01-10 06:22:00,
2013-01-09 20:32:00,72.0,63.0,29.98,East,80,12.0,17.0,73,-99.99,,,-99.99,,2013-01-10 06:32:00,
2013-01-09 20:42:00,72.0,63.0,29.98,East,80,7.0,-999.0,73,-99.99,,,-99.99,,2013-01-10 06:42:00,
2013-01-09 20:52:00,72.0,63.0,29.99,NNE,20,13.0,17.0,73,-99.99,,,-99.99,,2013-01-10 06:52:00,
2013-01-09 21:01:00,72.0,63.0,29.99,NNE,20,13.0,17.0,73,-99.99,,,-99.99,,2013-01-10 07:01:00,
2013-01-09 21:11:00,72.0,63.0,29.99,NNE,20,7.0,-999.0,73,-99.99,,,-99.99,,2013-01-10 07:11:00,
2013-01-09 21:22:00,72.0,63.0,29.99,NE,50,7.0,-999.0,73,-99.99,,,-99.99,,2013-01-10 07:22:00,
2013-01-09 21:32:00,72.0,63.0,29.99,NE,50,7.0,-999.0,73,-99.99,,,-99.99,,2013-01-10 07:32:00,
2013-01-09 21:42:00,72.0,63.0,29.99,NE,40,6.0,-999.0,73,-99.99,,,-99.99,,2013-01-10 07:42:00,
2013-01-09 21:52:00,72.0,63.0,29.99,NE,50,6.0,-999.0,73,-99.99,,,-99.99,,2013-01-10 07:52:00,
2013-01-09 22:01:00,72.0,63.0,29.99,NE,50,6.0,-999.0,73,-99.99,,,-99.99,,2013-01-10 08:01:00,
2013-01-09 22:11:00,72.0,61.0,29.99,ENE,60,10.0,16.0,68,-99.99,,,-99.99,,2013-01-10 08:11:00,
2013-01-09 22:21:00,72.0,63.0,29.99,East,80,8.0,-999.0,73,-99.99,,,-99.99,,2013-01-10 08:21:00,
2013-01-09 22:32:00,72.0,61.0,30.00,East,80,7.0,-999.0,68,-99.99,,,-99.99,,2013-01-10 08:32:00,
2013-01-09 22:42:00,72.0,61.0,29.99,ENE,60,15.0,18.0,68,-99.99,,,-99.99,,2013-01-10 08:42:00,
2013-01-09 22:52:00,72.0,59.0,29.99,ENE,70,9.0,16.0,64,-99.99,,,-99.99,,2013-01-10 08:52:00,
2013-01-09 23:02:00,72.0,59.0,29.99,ENE,70,9.0,16.0,64,-99.99,,,-99.99,,2013-01-10 09:02:00,
2013-01-09 23:11:00,72.0,61.0,29.99,ENE,70,10.0,-999.0,68,-99.99,,,-99.99,,2013-01-10 09:11:00,
2013-01-09 23:22:00,72.0,63.0,29.99,East,90,16.0,20.0,73,-99.99,,,-99.99,,2013-01-10 09:22:00,
2013-01-09 23:32:00,72.0,61.0,29.99,ENE,70,14.0,21.0,68,-99.99,,,-99.99,,2013-01-10 09:32:00,
2013-01-09 23:42:00,72.0,63.0,29.99,ENE,60,15.0,21.0,73,-99.99,,,-99.99,,2013-01-10 09:42:00,
2013-01-09 23:52:00,72.0,63.0,29.98,NE,50,14.0,21.0,73,-99.99,,,-99.99,,2013-01-10 09:52:00,